createdAt,value
2023-01-19T00:00:53.719Z,9.55
2023-01-19T00:03:21.712Z,9.50
2023-01-19T00:05:49.019Z,10.23
2023-01-19T00:08:16.335Z,10.63
2023-01-19T00:10:45.195Z,10.48
2023-01-19T00:13:12.500Z,6.50
2023-01-19T00:15:39.929Z,8.35
2023-01-19T00:18:08.028Z,9.02
2023-01-19T00:20:37.607Z,8.30
2023-01-19T00:23:05.292Z,9.52
2023-01-19T00:25:32.931Z,8.75
2023-01-19T00:28:01.663Z,8.60
2023-01-19T00:30:29.391Z,7.25
2023-01-19T00:32:57.014Z,7.65
2023-01-19T00:35:24.480Z,8.50
2023-01-19T00:37:51.712Z,9.23
2023-01-19T00:40:19.312Z,7.90
2023-01-19T00:42:48.483Z,8.18
2023-01-19T00:45:15.727Z,7.70
2023-01-19T00:47:43.092Z,9.57
2023-01-19T00:50:14.252Z,9.00
2023-01-19T00:52:41.645Z,8.63
2023-01-19T00:55:09.561Z,6.95
2023-01-19T00:57:37.731Z,7.43
2023-01-19T01:00:06.546Z,7.90
2023-01-19T01:02:34.313Z,8.27
2023-01-19T01:05:03.169Z,8.25
2023-01-19T01:09:57.828Z,7.82
2023-01-19T01:12:25.320Z,7.97
2023-01-19T01:14:52.763Z,6.90
2023-01-19T01:17:24.918Z,8.38
2023-01-19T01:19:52.570Z,6.70
2023-01-19T01:22:20.275Z,8.30
2023-01-19T01:24:47.685Z,6.28
2023-01-19T01:27:14.884Z,5.63
2023-01-19T01:29:48.548Z,5.18
2023-01-19T01:32:16.814Z,5.40
2023-01-19T01:34:44.337Z,5.38
2023-01-19T01:37:11.546Z,4.30
2023-01-19T01:39:38.852Z,4.25
2023-01-19T01:42:14.127Z,3.47
2023-01-19T01:44:50.181Z,4.60
2023-01-19T01:47:21.023Z,4.68
2023-01-19T01:49:48.600Z,4.10
2023-01-19T01:52:16.399Z,4.00
2023-01-19T01:54:44.035Z,3.42
2023-01-19T01:57:12.485Z,5.70
2023-01-19T01:59:43.983Z,3.33
2023-01-19T02:02:41.259Z,4.32
2023-01-19T02:05:15.849Z,8.02
2023-01-19T02:08:10.493Z,3.97
2023-01-19T02:10:56.813Z,3.85
2023-01-19T02:13:25.532Z,3.97
2023-01-19T02:15:57.898Z,6.18
2023-01-19T02:18:28.339Z,5.97
2023-01-19T02:20:58.415Z,5.00
2023-01-19T02:23:42.525Z,4.00
2023-01-19T02:26:10.928Z,4.88
2023-01-19T02:28:40.308Z,5.30
2023-01-19T02:31:07.510Z,5.22
2023-01-19T02:33:34.937Z,5.55
2023-01-19T02:36:02.622Z,3.55
2023-01-19T02:38:30.486Z,3.80
2023-01-19T02:40:58.867Z,3.33
2023-01-19T02:43:26.987Z,3.30
2023-01-19T02:45:54.580Z,3.03
2023-01-19T02:48:22.118Z,2.58
2023-01-19T02:50:51.567Z,2.47
2023-01-19T02:53:25.109Z,3.35
2023-01-19T02:56:12.811Z,3.25
2023-01-19T02:58:47.993Z,3.90
2023-01-19T03:01:21.498Z,4.35
2023-01-19T03:03:48.725Z,3.05
2023-01-19T03:06:15.767Z,2.95
2023-01-19T03:08:43.040Z,5.97
2023-01-19T03:11:11.607Z,3.63
2023-01-19T03:13:55.618Z,2.25
2023-01-19T03:16:25.517Z,5.72
2023-01-19T03:18:58.312Z,3.63
2023-01-19T03:21:27.735Z,5.53
2023-01-19T03:23:57.079Z,2.85
2023-01-19T03:26:26.186Z,2.97
2023-01-19T03:31:22.810Z,2.97
2023-01-19T03:33:51.653Z,3.35
2023-01-19T03:36:27.837Z,3.35
2023-01-19T03:38:57.408Z,4.43
2023-01-19T03:41:26.624Z,3.53
2023-01-19T03:43:55.478Z,2.47
2023-01-19T03:46:23.537Z,4.10
2023-01-19T03:48:51.038Z,4.87
2023-01-19T03:51:19.634Z,5.65
2023-01-19T03:53:47.068Z,6.38
2023-01-19T03:56:18.050Z,4.38
2023-01-19T03:58:46.062Z,5.32
2023-01-19T04:01:15.083Z,5.40
2023-01-19T04:03:43.943Z,9.40
2023-01-19T04:06:11.557Z,7.88
2023-01-19T04:08:38.642Z,7.85
2023-01-19T04:11:06.570Z,6.10
2023-01-19T04:13:34.545Z,8.15
2023-01-19T04:16:02.917Z,7.97
2023-01-19T04:18:33.728Z,10.82
2023-01-19T04:21:01.806Z,7.63
2023-01-19T04:23:29.198Z,6.05
2023-01-19T04:25:59.689Z,4.60
2023-01-19T04:28:27.596Z,6.75
2023-01-19T04:30:55.107Z,4.30
2023-01-19T04:33:22.496Z,5.30
2023-01-19T04:35:51.868Z,6.30
2023-01-19T04:38:20.129Z,5.07
2023-01-19T04:40:48.794Z,5.75
2023-01-19T04:43:15.936Z,5.00
2023-01-19T04:45:44.862Z,6.32
2023-01-19T04:48:12.970Z,5.03
2023-01-19T04:50:41.610Z,5.28
2023-01-19T04:53:09.239Z,6.93
2023-01-19T04:55:37.268Z,5.13
2023-01-19T04:58:04.807Z,5.00
2023-01-19T05:00:32.273Z,9.38
2023-01-19T05:03:00.178Z,3.60
2023-01-19T05:05:27.649Z,6.20
2023-01-19T05:07:54.976Z,5.78
2023-01-19T05:10:22.515Z,5.63
2023-01-19T05:12:49.916Z,5.43
2023-01-19T05:15:17.136Z,10.40
2023-01-19T05:17:44.296Z,8.15
2023-01-19T05:20:13.776Z,6.20
2023-01-19T05:22:42.597Z,9.70
2023-01-19T05:25:10.120Z,8.27
2023-01-19T05:27:37.483Z,7.20
2023-01-19T05:30:05.599Z,8.75
2023-01-19T05:32:33.392Z,6.63
2023-01-19T05:35:00.910Z,6.63
2023-01-19T05:37:28.303Z,6.28
2023-01-19T05:39:55.585Z,6.57
2023-01-19T05:42:22.831Z,7.93
2023-01-19T05:44:49.973Z,7.88
2023-01-19T05:47:17.130Z,7.15
2023-01-19T05:49:44.355Z,7.93
2023-01-19T05:52:12.097Z,12.55
2023-01-19T05:54:40.496Z,6.28
2023-01-19T05:57:08.150Z,6.93
2023-01-19T05:59:35.540Z,8.00
2023-01-19T06:02:02.908Z,7.13
2023-01-19T06:04:30.186Z,5.88
2023-01-19T06:06:57.689Z,7.68
2023-01-19T06:09:24.855Z,6.30
2023-01-19T06:11:54.221Z,5.22
2023-01-19T06:14:21.650Z,7.03
2023-01-19T06:16:49.008Z,6.60
2023-01-19T06:19:16.465Z,7.00
2023-01-19T06:21:49.685Z,5.43
2023-01-19T06:24:16.856Z,5.95
2023-01-19T06:26:44.301Z,6.10
2023-01-19T06:29:12.216Z,8.98
2023-01-19T06:31:40.396Z,4.95
2023-01-19T06:34:08.017Z,7.25
2023-01-19T06:36:35.189Z,5.90
2023-01-19T06:39:06.088Z,7.45
2023-01-19T06:41:35.028Z,5.05
2023-01-19T06:44:02.751Z,4.90
2023-01-19T06:46:30.265Z,6.68
2023-01-19T06:48:57.925Z,8.00
2023-01-19T06:51:25.610Z,5.72
2023-01-19T06:53:53.013Z,7.05
2023-01-19T06:56:20.136Z,6.40
2023-01-19T06:58:48.419Z,6.78
2023-01-19T07:01:16.330Z,5.88
2023-01-19T07:03:46.188Z,3.90
2023-01-19T07:06:14.050Z,6.50
2023-01-19T07:08:41.114Z,4.70
2023-01-19T07:11:24.721Z,5.07
2023-01-19T07:13:57.077Z,7.00
2023-01-19T07:16:24.337Z,6.60
2023-01-19T07:18:51.560Z,6.72
2023-01-19T07:21:19.289Z,7.00
2023-01-19T07:23:51.454Z,7.30
2023-01-19T07:26:21.330Z,7.35
2023-01-19T07:28:49.005Z,6.30
2023-01-19T07:31:16.401Z,7.47
2023-01-19T07:33:44.258Z,8.63
2023-01-19T07:36:11.829Z,8.25
2023-01-19T07:38:39.027Z,8.85
2023-01-19T07:41:08.352Z,8.85
2023-01-19T07:43:35.896Z,8.20
2023-01-19T07:46:04.588Z,8.07
2023-01-19T07:48:31.998Z,8.20
2023-01-19T07:51:09.878Z,8.63
2023-01-19T07:53:40.088Z,10.20
2023-01-19T07:56:07.816Z,8.20
2023-01-19T07:58:35.315Z,10.43
2023-01-19T08:01:09.515Z,10.77
2023-01-19T08:03:37.249Z,9.80
2023-01-19T08:06:05.230Z,11.10
2023-01-19T08:08:33.081Z,12.05
2023-01-19T08:11:00.756Z,8.70
2023-01-19T08:13:28.179Z,13.30
2023-01-19T08:15:55.827Z,11.20
2023-01-19T08:18:23.348Z,12.85
2023-01-19T08:20:50.794Z,13.05
2023-01-19T08:23:18.652Z,12.90
2023-01-19T08:25:46.108Z,14.60
2023-01-19T08:28:14.755Z,12.45
2023-01-19T08:30:44.439Z,8.38
2023-01-19T08:33:12.549Z,12.20
2023-01-19T08:35:40.776Z,14.07
2023-01-19T08:38:08.707Z,15.63
2023-01-19T08:40:37.808Z,9.27
2023-01-19T08:43:07.741Z,14.70
2023-01-19T08:45:35.789Z,12.18
2023-01-19T08:48:03.752Z,10.10
2023-01-19T08:50:32.086Z,14.15
2023-01-19T08:53:00.853Z,11.43
2023-01-19T08:55:29.238Z,11.30
2023-01-19T08:57:58.075Z,10.20
2023-01-19T09:00:27.220Z,14.55
2023-01-19T09:02:55.008Z,13.63
2023-01-19T09:05:22.514Z,15.68
2023-01-19T09:07:51.742Z,11.70
2023-01-19T09:12:46.516Z,11.98
2023-01-19T09:15:14.043Z,14.43
2023-01-19T09:17:42.369Z,10.63
2023-01-19T09:22:38.676Z,14.55
2023-01-19T09:25:07.347Z,9.15
2023-01-19T09:27:34.975Z,12.80
2023-01-19T09:30:02.948Z,15.20
2023-01-19T09:32:31.075Z,14.57
2023-01-19T09:34:58.441Z,14.93
2023-01-19T09:37:25.898Z,15.00
2023-01-19T09:39:53.421Z,14.40
2023-01-19T09:42:36.035Z,10.60
2023-01-19T09:45:06.525Z,13.00
2023-01-19T09:47:35.567Z,13.20
2023-01-19T09:50:10.855Z,12.85
2023-01-19T09:52:41.632Z,16.83
2023-01-19T09:55:20.655Z,12.05
2023-01-19T09:57:47.978Z,11.90
2023-01-19T10:00:18.653Z,13.40
2023-01-19T10:02:53.134Z,15.70
2023-01-19T10:05:35.433Z,15.55
2023-01-19T10:08:21.481Z,13.45
2023-01-19T10:10:52.788Z,12.27
2023-01-19T10:13:34.277Z,14.23
2023-01-19T10:16:14.363Z,11.55
2023-01-19T10:18:45.849Z,12.65
2023-01-19T10:21:19.263Z,11.20
2023-01-19T10:23:52.324Z,11.45
2023-01-19T10:26:26.038Z,11.48
2023-01-19T10:28:55.626Z,11.02
2023-01-19T10:31:23.678Z,11.95
2023-01-19T10:33:51.396Z,13.63
2023-01-19T10:36:20.533Z,11.90
2023-01-19T10:38:48.422Z,11.93
2023-01-19T10:41:20.187Z,12.00
2023-01-19T10:43:48.173Z,10.00
2023-01-19T10:46:37.394Z,13.20
2023-01-19T10:49:05.568Z,12.32
2023-01-19T10:51:33.311Z,13.23
2023-01-19T10:54:01.938Z,12.40
2023-01-19T10:56:34.300Z,10.45
2023-01-19T10:59:02.201Z,14.85
2023-01-19T11:01:31.326Z,13.15
2023-01-19T11:06:34.338Z,11.20
2023-01-19T11:09:15.236Z,14.20
2023-01-19T11:11:48.015Z,13.98
2023-01-19T11:14:18.349Z,10.80
2023-01-19T11:16:47.257Z,12.20
2023-01-19T11:19:24.292Z,10.18
2023-01-19T11:21:51.665Z,16.00
2023-01-19T11:24:19.126Z,9.32
2023-01-19T11:26:48.257Z,10.23
2023-01-19T11:29:17.370Z,10.45
2023-01-19T11:34:25.462Z,11.07
2023-01-19T11:37:00.497Z,10.10
2023-01-19T11:39:32.331Z,7.43
2023-01-19T11:42:02.986Z,9.88
2023-01-19T11:44:35.320Z,8.50
2023-01-19T11:47:05.049Z,8.77
2023-01-19T11:49:52.494Z,7.88
2023-01-19T11:52:31.874Z,9.35
2023-01-19T11:55:07.918Z,12.45
2023-01-19T11:57:35.263Z,9.88
2023-01-19T12:00:05.176Z,10.38
2023-01-19T12:02:41.908Z,8.90
2023-01-19T12:05:12.658Z,7.65
2023-01-19T12:07:39.951Z,12.40
2023-01-19T12:10:13.295Z,10.23
2023-01-19T12:12:41.305Z,10.20
2023-01-19T12:15:25.845Z,14.52
2023-01-19T12:17:54.433Z,13.20
2023-01-19T12:20:27.356Z,10.95
2023-01-19T12:23:03.607Z,11.88
2023-01-19T12:25:56.788Z,11.38
2023-01-19T12:28:28.696Z,14.48
2023-01-19T12:30:57.154Z,11.68
2023-01-19T12:33:36.117Z,9.68
2023-01-19T12:36:06.267Z,12.32
2023-01-19T12:38:36.198Z,13.60
2023-01-19T12:41:21.804Z,13.02
2023-01-19T12:44:08.930Z,11.63
2023-01-19T12:46:37.105Z,12.00
2023-01-19T12:49:23.611Z,15.70
2023-01-19T12:51:52.133Z,12.95
2023-01-19T12:54:23.452Z,11.05
2023-01-19T12:56:56.778Z,12.18
2023-01-19T12:59:27.433Z,14.48
2023-01-19T13:02:13.305Z,13.60
2023-01-19T13:04:40.584Z,14.38
2023-01-19T13:07:10.540Z,12.57
2023-01-19T13:09:38.805Z,12.02
2023-01-19T13:12:15.133Z,8.02
2023-01-19T13:14:43.321Z,16.55
2023-01-19T13:17:24.197Z,12.52
2023-01-19T13:20:05.971Z,14.98
2023-01-19T13:22:51.866Z,10.32
2023-01-19T13:25:26.730Z,13.13
2023-01-19T13:27:54.886Z,14.05
2023-01-19T13:30:23.856Z,9.93
2023-01-19T13:32:51.421Z,8.82
2023-01-19T13:35:19.284Z,12.05
2023-01-19T13:37:46.538Z,10.57
2023-01-19T13:40:24.491Z,14.50
2023-01-19T13:42:53.048Z,8.32
2023-01-19T13:45:33.539Z,10.30
2023-01-19T13:48:02.736Z,11.80
2023-01-19T13:50:31.624Z,14.38
2023-01-19T13:53:00.358Z,9.80
2023-01-19T13:55:28.992Z,12.55
2023-01-19T13:57:57.170Z,14.00
2023-01-19T14:00:31.167Z,8.38
2023-01-19T14:03:01.392Z,12.45
2023-01-19T14:05:30.582Z,10.45
2023-01-19T14:08:01.839Z,11.88
2023-01-19T14:10:31.299Z,10.07
2023-01-19T14:13:02.611Z,11.73
2023-01-19T14:15:31.668Z,11.65
2023-01-19T14:20:29.817Z,7.18
2023-01-19T14:22:57.059Z,10.38
2023-01-19T14:25:28.241Z,11.45
2023-01-19T14:28:25.057Z,8.75
2023-01-19T14:30:53.497Z,10.90
2023-01-19T14:33:32.993Z,12.73
2023-01-19T14:36:10.313Z,15.35
2023-01-19T14:38:39.482Z,13.20
2023-01-19T14:41:07.274Z,13.43
2023-01-19T14:43:34.442Z,9.48
2023-01-19T14:46:01.650Z,8.48
2023-01-19T14:48:31.232Z,9.90
2023-01-19T14:51:03.629Z,9.93
2023-01-19T14:53:34.030Z,10.23
2023-01-19T14:56:04.575Z,7.97
2023-01-19T14:58:35.476Z,10.07
2023-01-19T15:01:02.834Z,11.95
2023-01-19T15:03:43.367Z,12.35
2023-01-19T15:06:14.173Z,9.75
2023-01-19T15:08:41.438Z,9.98
2023-01-19T15:11:21.353Z,9.02
2023-01-19T15:13:48.763Z,10.10
2023-01-19T15:16:16.444Z,9.35
2023-01-19T15:18:43.804Z,11.82
2023-01-19T15:21:23.635Z,10.40
2023-01-19T15:23:51.109Z,10.73
2023-01-19T15:26:20.823Z,10.00
2023-01-19T15:28:51.439Z,8.20
2023-01-19T15:31:21.150Z,8.80
2023-01-19T15:33:48.812Z,6.13
2023-01-19T15:36:18.219Z,8.73
2023-01-19T15:38:46.031Z,9.13
2023-01-19T15:41:23.292Z,8.57
2023-01-19T15:43:50.769Z,9.82
2023-01-19T15:46:22.854Z,8.13
2023-01-19T15:48:50.609Z,11.93
2023-01-19T15:51:21.906Z,11.55
2023-01-19T15:53:49.580Z,8.40
2023-01-19T15:56:21.225Z,10.40
2023-01-19T15:58:49.060Z,8.02
2023-01-19T16:01:17.468Z,10.13
2023-01-19T16:03:44.926Z,4.88
2023-01-19T16:06:12.918Z,10.80
2023-01-19T16:08:40.228Z,7.47
2023-01-19T16:11:08.728Z,9.57
2023-01-19T16:13:35.962Z,11.13
2023-01-19T16:16:07.542Z,11.63
2023-01-19T16:18:34.832Z,11.95
2023-01-19T16:21:02.094Z,8.07
2023-01-19T16:23:29.524Z,11.45
2023-01-19T16:26:10.419Z,9.75
2023-01-19T16:28:38.271Z,9.88
2023-01-19T16:31:05.575Z,9.98
2023-01-19T16:33:32.766Z,9.70
2023-01-19T16:36:16.654Z,10.75
2023-01-19T16:38:43.810Z,11.60
2023-01-19T16:41:11.298Z,11.27
2023-01-19T16:43:38.506Z,11.30
2023-01-19T16:46:05.954Z,14.02
2023-01-19T16:48:33.362Z,11.00
2023-01-19T16:51:05.366Z,12.45
2023-01-19T16:53:34.847Z,15.00
2023-01-19T16:56:08.966Z,15.45
2023-01-19T16:58:38.438Z,15.68
2023-01-19T17:01:06.922Z,14.80
2023-01-19T17:03:34.642Z,20.23
2023-01-19T17:06:02.138Z,17.10
2023-01-19T17:08:30.295Z,9.53
2023-01-19T17:10:57.813Z,12.60
2023-01-19T17:13:25.110Z,13.25
2023-01-19T17:15:52.869Z,10.80
2023-01-19T17:18:20.575Z,13.23
2023-01-19T17:20:47.763Z,12.00
2023-01-19T17:23:15.686Z,11.40
2023-01-19T17:25:43.287Z,13.52
2023-01-19T17:28:11.008Z,11.32
2023-01-19T17:30:38.450Z,10.27
2023-01-19T17:33:05.933Z,12.35
2023-01-19T17:35:34.116Z,10.13
2023-01-19T17:38:01.805Z,7.95
2023-01-19T17:40:29.937Z,11.48
2023-01-19T17:42:57.022Z,12.15
2023-01-19T17:45:24.558Z,11.75
2023-01-19T17:47:52.041Z,10.45
2023-01-19T17:50:19.461Z,11.75
2023-01-19T17:52:46.954Z,10.05
2023-01-19T17:55:14.632Z,10.52
2023-01-19T17:57:42.233Z,11.70
2023-01-19T18:00:10.430Z,13.35
2023-01-19T18:02:38.511Z,6.78
2023-01-19T18:05:06.728Z,9.50
2023-01-19T18:07:34.387Z,10.50
2023-01-19T18:10:02.127Z,9.35
2023-01-19T18:12:31.399Z,9.03
2023-01-19T18:14:59.096Z,9.85
2023-01-19T18:17:27.516Z,7.75
2023-01-19T18:19:55.081Z,10.68
2023-01-19T18:22:22.623Z,9.00
2023-01-19T18:24:53.144Z,11.52
2023-01-19T18:27:21.950Z,10.57
2023-01-19T18:29:49.698Z,10.85
2023-01-19T18:32:17.072Z,9.15
2023-01-19T18:34:44.640Z,8.00
2023-01-19T18:37:12.294Z,9.23
2023-01-19T18:39:39.932Z,13.27
2023-01-19T18:42:07.326Z,9.77
2023-01-19T18:44:34.859Z,10.13
2023-01-19T18:47:02.911Z,8.73
2023-01-19T18:49:30.275Z,13.40
2023-01-19T18:51:57.990Z,7.28
2023-01-19T18:54:25.486Z,8.73
2023-01-19T18:56:53.003Z,7.38
2023-01-19T18:59:20.506Z,9.23
2023-01-19T19:01:48.418Z,10.95
2023-01-19T19:04:16.566Z,10.23
2023-01-19T19:06:44.009Z,6.90
2023-01-19T19:09:11.422Z,13.68
2023-01-19T19:11:38.822Z,7.38
2023-01-19T19:14:06.343Z,12.27
2023-01-19T19:16:36.149Z,8.90
2023-01-19T19:19:04.624Z,7.70
2023-01-19T19:21:32.322Z,10.43
2023-01-19T19:23:59.694Z,6.70
2023-01-19T19:26:28.339Z,11.32
2023-01-19T19:31:26.099Z,9.02
2023-01-19T19:33:55.155Z,11.88
2023-01-19T19:38:50.663Z,7.95
2023-01-19T19:41:20.521Z,11.53
2023-01-19T19:43:50.916Z,9.57
2023-01-19T19:51:18.846Z,9.20
2023-01-19T19:53:47.482Z,9.57
2023-01-19T19:58:43.024Z,6.38
2023-01-19T20:01:15.310Z,6.90
2023-01-19T20:03:43.353Z,5.97
2023-01-19T20:06:12.355Z,5.30
2023-01-19T20:08:40.598Z,4.68
2023-01-19T20:11:13.865Z,7.68
2023-01-19T20:13:42.419Z,8.35
2023-01-19T20:16:11.563Z,4.50
2023-01-19T20:18:40.194Z,6.15
2023-01-19T20:21:15.400Z,6.20
2023-01-19T20:23:43.548Z,6.95
2023-01-19T20:26:12.198Z,7.47
2023-01-19T20:28:39.673Z,5.47
2023-01-19T20:31:13.213Z,7.72
2023-01-19T20:33:41.295Z,5.75
2023-01-19T20:36:09.899Z,6.78
2023-01-19T20:38:37.797Z,5.40
2023-01-19T20:41:05.486Z,7.65
2023-01-19T20:43:32.707Z,6.28
2023-01-19T20:46:00.340Z,5.60
2023-01-19T20:48:28.066Z,7.88
2023-01-19T20:51:02.535Z,6.88
2023-01-19T20:53:30.226Z,12.52
2023-01-19T20:55:57.930Z,7.00
2023-01-19T20:58:25.251Z,7.35
2023-01-19T21:00:52.769Z,7.65
2023-01-19T21:03:20.402Z,6.60
2023-01-19T21:05:48.485Z,5.82
2023-01-19T21:08:16.704Z,7.05
2023-01-19T21:10:45.571Z,10.23
2023-01-19T21:13:13.014Z,8.57
2023-01-19T21:15:40.422Z,9.20
2023-01-19T21:18:07.851Z,10.55
2023-01-19T21:20:35.387Z,9.00
2023-01-19T21:23:02.845Z,8.95
2023-01-19T21:25:30.034Z,10.52
2023-01-19T21:27:57.865Z,8.40
2023-01-19T21:30:25.457Z,8.82
2023-01-19T21:32:52.888Z,10.68
2023-01-19T21:35:20.306Z,9.07
2023-01-19T21:37:47.811Z,7.32
2023-01-19T21:40:15.317Z,8.15
2023-01-19T21:42:42.886Z,7.70
2023-01-19T21:45:10.265Z,7.93
2023-01-19T21:47:37.451Z,11.15
2023-01-19T21:50:04.768Z,8.18
2023-01-19T21:52:32.639Z,7.72
2023-01-19T21:54:59.753Z,6.10
2023-01-19T21:57:27.097Z,7.65
2023-01-19T21:59:54.553Z,6.10
2023-01-19T22:02:37.712Z,9.15
2023-01-19T22:05:06.707Z,7.25
2023-01-19T22:07:33.940Z,5.73
2023-01-19T22:10:01.285Z,8.02
2023-01-19T22:12:28.696Z,8.13
2023-01-19T22:14:55.867Z,7.70
2023-01-19T22:17:23.002Z,8.00
2023-01-19T22:19:50.139Z,7.80
2023-01-19T22:22:17.301Z,6.35
2023-01-19T22:24:46.661Z,8.43
2023-01-19T22:27:14.100Z,9.05
2023-01-19T22:29:41.438Z,9.48
2023-01-19T22:32:09.112Z,8.25
2023-01-19T22:34:36.450Z,8.80
2023-01-19T22:37:03.518Z,6.72
2023-01-19T22:39:30.707Z,7.47
2023-01-19T22:41:57.806Z,5.55
2023-01-19T22:44:24.908Z,7.40
2023-01-19T22:46:54.103Z,5.43
2023-01-19T22:51:48.457Z,7.63
2023-01-19T22:54:15.689Z,5.88
2023-01-19T22:56:43.147Z,7.68
2023-01-19T22:59:10.904Z,8.02
2023-01-19T23:01:39.910Z,5.53
2023-01-19T23:06:35.323Z,7.03
2023-01-19T23:09:04.645Z,3.88
2023-01-19T23:11:36.819Z,4.57
2023-01-19T23:14:04.925Z,5.63
2023-01-19T23:16:32.254Z,6.53
2023-01-19T23:18:59.448Z,5.75
2023-01-19T23:21:27.873Z,6.82
2023-01-19T23:23:59.475Z,5.07
2023-01-19T23:26:27.286Z,7.53
2023-01-19T23:28:56.655Z,6.57
2023-01-19T23:31:28.235Z,7.72
2023-01-19T23:33:58.312Z,5.80
2023-01-19T23:36:26.879Z,8.13
2023-01-19T23:38:56.056Z,6.95
2023-01-19T23:41:24.227Z,7.97
2023-01-19T23:43:51.868Z,7.80
2023-01-19T23:46:19.759Z,7.30
2023-01-19T23:48:47.280Z,4.90
2023-01-19T23:51:16.996Z,6.57
2023-01-19T23:56:22.055Z,6.82
2023-01-19T23:58:53.555Z,6.70
